createdAt,value
2018-12-18T00:01:23.655Z,2.1
2018-12-18T00:06:20.026Z,2.1
2018-12-18T00:11:16.509Z,2.1
2018-12-18T00:16:13.134Z,2
2018-12-18T00:21:10.170Z,2.5
2018-12-18T00:26:05.938Z,2
2018-12-18T00:31:02.646Z,2.5
2018-12-18T00:35:59.230Z,2.5
2018-12-18T00:40:56.327Z,2.3
2018-12-18T00:45:52.834Z,2.5
2018-12-18T00:50:49.120Z,2.5
2018-12-18T00:55:46.167Z,2.3
2018-12-18T01:00:43.085Z,2
2018-12-18T01:05:40.170Z,2.2
2018-12-18T01:10:36.628Z,2
2018-12-18T01:15:33.476Z,2.4
2018-12-18T01:20:30.350Z,2.4
2018-12-18T01:25:26.960Z,2.4
2018-12-18T01:30:23.447Z,1.9
2018-12-18T01:35:20.306Z,2.4
2018-12-18T01:40:17.338Z,1.9
2018-12-18T01:45:13.962Z,1.7
2018-12-18T01:50:10.886Z,2.3
2018-12-18T01:55:07.953Z,2.3
2018-12-18T02:00:04.148Z,1.9
2018-12-18T02:05:00.860Z,1.8
2018-12-18T02:09:57.899Z,2.3
2018-12-18T02:14:54.290Z,2.3
2018-12-18T02:19:50.448Z,1.8
2018-12-18T02:24:47.438Z,2.3
2018-12-18T02:29:44.097Z,1.8
2018-12-18T02:34:40.429Z,2.2
2018-12-18T02:39:36.882Z,2.2
2018-12-18T02:44:33.634Z,1.7
2018-12-18T02:49:30.421Z,2.2
2018-12-18T02:54:27.334Z,1.8
2018-12-18T02:59:24.214Z,2.2
2018-12-18T03:04:21.821Z,2.2
2018-12-18T03:09:18.581Z,1.7
2018-12-18T03:14:14.944Z,1.7
2018-12-18T03:19:11.802Z,2.2
2018-12-18T03:24:07.668Z,1.7
2018-12-18T03:29:04.212Z,1.7
2018-12-18T03:34:00.519Z,1.6
2018-12-18T03:38:57.043Z,1.6
2018-12-18T03:43:53.701Z,1.6
2018-12-18T03:48:50.775Z,1.6
2018-12-18T03:53:47.258Z,2.1
2018-12-18T03:58:44.364Z,2.1
2018-12-18T04:03:41.261Z,1.6
2018-12-18T04:08:38.322Z,2.1
2018-12-18T04:13:35.284Z,1.7
2018-12-18T04:18:31.876Z,1.6
2018-12-18T04:23:28.506Z,1.6
2018-12-18T04:28:25.375Z,1.6
2018-12-18T04:33:22.372Z,1.5
2018-12-18T04:38:19.563Z,2
2018-12-18T04:43:15.970Z,1.5
2018-12-18T04:48:13.023Z,1.5
2018-12-18T04:53:09.734Z,1.5
2018-12-18T04:58:06.742Z,1.5
2018-12-18T05:03:03.287Z,1.5
2018-12-18T05:08:00.373Z,1.5
2018-12-18T05:12:56.768Z,1.5
2018-12-18T05:17:53.902Z,1.5
2018-12-18T05:22:50.444Z,1.4
2018-12-18T05:27:47.089Z,1.5
2018-12-18T05:32:44.137Z,1.5
2018-12-18T05:37:41.123Z,1.5
2018-12-18T05:42:37.737Z,1.4
2018-12-18T05:47:34.539Z,1.9
2018-12-18T05:52:31.546Z,1.4
2018-12-18T05:57:28.205Z,1.4
2018-12-18T06:02:25.127Z,1.4
2018-12-18T06:07:22.126Z,1.4
2018-12-18T06:12:18.671Z,1.4
2018-12-18T06:17:15.727Z,1.3
2018-12-18T06:22:12.771Z,1.8
2018-12-18T06:27:09.807Z,1.4
2018-12-18T06:32:06.183Z,1.3
2018-12-18T06:37:02.961Z,1.3
2018-12-18T06:42:00.301Z,1.3
2018-12-18T06:46:57.391Z,1.3
2018-12-18T06:51:54.309Z,1.3
2018-12-18T06:56:51.455Z,1.3
2018-12-18T07:01:48.209Z,1.3
2018-12-18T07:06:45.339Z,1.3
2018-12-18T07:11:42.489Z,1.3
2018-12-18T07:16:39.524Z,1.2
2018-12-18T07:21:36.179Z,1.2
2018-12-18T07:26:33.411Z,1.2
2018-12-18T07:31:30.327Z,1.3
2018-12-18T07:36:26.860Z,1.2
2018-12-18T07:41:23.989Z,1.2
2018-12-18T07:46:21.210Z,1.2
2018-12-18T07:51:18.173Z,1.2
2018-12-18T07:56:14.820Z,1.2
2018-12-18T08:01:11.906Z,1.2
2018-12-18T08:06:09.038Z,1.1
2018-12-18T08:11:05.869Z,1.2
2018-12-18T08:16:02.762Z,1.1
2018-12-18T08:20:59.704Z,1.1
2018-12-18T08:25:56.694Z,1.6
2018-12-18T08:30:53.366Z,1.1
2018-12-18T08:35:50.013Z,1.1
2018-12-18T08:40:46.615Z,1.1
2018-12-18T08:45:43.852Z,1.1
2018-12-18T08:50:40.960Z,1.1
2018-12-18T08:55:37.614Z,1.1
2018-12-18T09:00:34.626Z,1.1
2018-12-18T09:05:31.700Z,1.1
2018-12-18T09:10:28.281Z,1.1
2018-12-18T09:15:25.291Z,1.1
2018-12-18T09:20:22.266Z,1.1
2018-12-18T09:25:19.174Z,1.6
2018-12-18T09:30:16.349Z,1.6
2018-12-18T09:35:13.209Z,1.6
2018-12-18T09:40:10.195Z,1.1
2018-12-18T09:45:07.174Z,1.1
2018-12-18T09:50:04.189Z,1.1
2018-12-18T09:55:01.404Z,1.6
2018-12-18T09:59:58.177Z,1.1
2018-12-18T10:04:55.441Z,1.5
2018-12-18T10:09:52.628Z,1.1
2018-12-18T10:14:49.409Z,1.1
2018-12-18T10:19:45.950Z,0.6
2018-12-18T10:24:42.621Z,1.1
2018-12-18T10:29:39.670Z,1.1
2018-12-18T10:34:36.331Z,1.1
2018-12-18T10:39:32.866Z,1.3
2018-12-18T10:44:29.438Z,1.6
2018-12-18T10:49:26.487Z,1.1
2018-12-18T10:54:23.532Z,1.1
2018-12-18T10:59:20.212Z,1.6
2018-12-18T11:04:17.386Z,1.6
2018-12-18T11:09:13.439Z,1.1
2018-12-18T11:14:10.574Z,0.9
2018-12-18T11:19:07.419Z,1.6
2018-12-18T11:24:04.395Z,1.1
2018-12-18T11:29:00.958Z,1.1
2018-12-18T11:33:57.444Z,1.1
2018-12-18T11:38:54.516Z,1.1
2018-12-18T11:43:50.960Z,1.1
2018-12-18T11:48:47.327Z,1.1
2018-12-18T11:53:44.350Z,1.1
2018-12-18T11:58:41.330Z,1.1
2018-12-18T12:03:38.172Z,1.1
2018-12-18T12:08:35.170Z,1.1
2018-12-18T12:13:32.254Z,0.9
2018-12-18T12:18:29.286Z,1.6
2018-12-18T12:23:26.246Z,1.1
2018-12-18T12:28:22.758Z,1.1
2018-12-18T12:33:19.977Z,1.1
2018-12-18T12:38:16.856Z,1.1
2018-12-18T12:43:13.865Z,1.1
2018-12-18T12:48:11.109Z,1.2
2018-12-18T12:53:07.688Z,1.2
2018-12-18T12:58:04.781Z,1.2
2018-12-18T13:03:01.793Z,1.1
2018-12-18T13:07:58.445Z,1.1
2018-12-18T13:12:55.866Z,1.2
2018-12-18T13:17:52.962Z,1.1
2018-12-18T13:22:49.371Z,1.2
2018-12-18T13:27:46.658Z,1.2
2018-12-18T13:32:43.438Z,1.2
2018-12-18T13:37:40.073Z,1.2
2018-12-18T13:42:37.024Z,1.2
2018-12-18T13:47:33.780Z,1.2
2018-12-18T13:52:30.559Z,1.7
2018-12-18T13:57:27.603Z,1.2
2018-12-18T14:02:24.280Z,1.2
2018-12-18T14:07:21.371Z,1.7
2018-12-18T14:12:18.264Z,1.7
2018-12-18T14:17:15.413Z,1.2
2018-12-18T14:22:12.619Z,1.2
2018-12-18T14:27:09.958Z,1.2
2018-12-18T14:32:07.036Z,1.1
2018-12-18T14:37:03.524Z,1.3
2018-12-18T14:42:00.294Z,1.2
2018-12-18T14:46:56.946Z,1.2
2018-12-18T14:51:54.083Z,1.2
2018-12-18T14:56:50.847Z,1.2
2018-12-18T15:01:48.007Z,1.2
2018-12-18T15:06:44.725Z,1.2
2018-12-18T15:11:41.755Z,1.2
2018-12-18T15:16:38.984Z,1.3
2018-12-18T15:21:35.501Z,1.7
2018-12-18T15:26:32.253Z,1.2
2018-12-18T15:31:29.214Z,1.1
2018-12-18T15:36:25.894Z,1.2
2018-12-18T15:41:22.987Z,1.2
2018-12-18T15:46:20.194Z,1.7
2018-12-18T15:51:16.860Z,1.3
2018-12-18T15:56:13.708Z,1.3
2018-12-18T16:01:10.861Z,1.2
2018-12-18T16:06:07.817Z,1.2
2018-12-18T16:11:04.327Z,1.3
2018-12-18T16:16:01.075Z,1.2
2018-12-18T16:20:57.880Z,1
2018-12-18T16:25:54.843Z,1.2
2018-12-18T16:30:51.040Z,1.2
2018-12-18T16:35:48.233Z,1
2018-12-18T16:40:44.846Z,1.2
2018-12-18T16:45:41.886Z,1.2
2018-12-18T16:50:39.064Z,1.2
2018-12-18T16:55:36.110Z,1.1
2018-12-18T17:00:32.770Z,1.1
2018-12-18T17:05:29.284Z,1.2
2018-12-18T17:10:25.847Z,1.2
2018-12-18T17:15:22.895Z,1.1
2018-12-18T17:20:19.959Z,1.2
2018-12-18T17:25:16.939Z,1.2
2018-12-18T17:30:13.887Z,1.1
2018-12-18T17:35:10.461Z,1.1
2018-12-18T17:40:06.919Z,1.1
2018-12-18T17:45:03.647Z,1.1
2018-12-18T17:50:00.086Z,1.1
2018-12-18T17:54:57.540Z,1.6
2018-12-18T17:59:54.538Z,1.1
2018-12-18T18:04:51.231Z,1.1
2018-12-18T18:09:48.352Z,1
2018-12-18T18:14:45.092Z,1
2018-12-18T18:19:42.354Z,1.1
2018-12-18T18:24:39.575Z,1
2018-12-18T18:29:36.717Z,1.5
2018-12-18T18:34:33.409Z,1.5
2018-12-18T18:39:30.518Z,1
2018-12-18T18:44:27.563Z,1
2018-12-18T18:49:24.111Z,1
2018-12-18T18:54:21.207Z,0.9
2018-12-18T18:59:17.783Z,0.9
2018-12-18T19:04:14.996Z,1.5
2018-12-18T19:09:12.133Z,0.9
2018-12-18T19:14:09.092Z,0.9
2018-12-18T19:19:05.639Z,1
2018-12-18T19:24:02.389Z,0.9
2018-12-18T19:28:59.759Z,1.4
2018-12-18T19:33:56.549Z,0.9
2018-12-18T19:38:53.637Z,0.9
2018-12-18T19:43:50.749Z,0.9
2018-12-18T19:48:47.961Z,1.4
2018-12-18T19:53:44.633Z,1.3
2018-12-18T19:58:41.253Z,0.9
2018-12-18T20:03:37.751Z,1.3
2018-12-18T20:08:34.931Z,0.8
2018-12-18T20:13:31.576Z,0.8
2018-12-18T20:18:28.320Z,0.9
2018-12-18T20:23:25.023Z,1.3
2018-12-18T20:28:21.552Z,0.8
2018-12-18T20:33:17.958Z,1.3
2018-12-18T20:38:16.920Z,1.3
2018-12-18T20:43:13.350Z,0.8
2018-12-18T20:48:10.303Z,0.8
2018-12-18T20:53:07.321Z,0.6
2018-12-18T20:58:03.755Z,1.2
2018-12-18T21:03:00.817Z,0.7
2018-12-18T21:07:57.863Z,0.7
2018-12-18T21:12:54.764Z,0.8
2018-12-18T21:17:51.739Z,0.7
2018-12-18T21:22:48.309Z,0.7
2018-12-18T21:27:45.000Z,0.6
2018-12-18T21:32:42.101Z,0.7
2018-12-18T21:37:39.092Z,0.2
2018-12-18T21:42:35.791Z,1.1
2018-12-18T21:47:32.774Z,0.6
2018-12-18T21:52:29.904Z,0.6
2018-12-18T21:57:26.508Z,0.6
2018-12-18T22:02:23.501Z,0.6
2018-12-18T22:07:20.635Z,0.9
2018-12-18T22:12:17.266Z,1.1
2018-12-18T22:17:13.965Z,0.6
2018-12-18T22:22:10.793Z,1.1
2018-12-18T22:27:07.503Z,0.6
2018-12-18T22:32:04.034Z,0.5
2018-12-18T22:37:01.050Z,1
2018-12-18T22:41:58.105Z,0.5
2018-12-18T22:46:55.148Z,1
2018-12-18T22:51:52.158Z,1
2018-12-18T22:56:49.330Z,0.7
2018-12-18T23:01:46.094Z,1
2018-12-18T23:06:43.239Z,1
2018-12-18T23:11:40.365Z,0.4
2018-12-18T23:16:37.433Z,0.5
2018-12-18T23:21:34.455Z,0.9
2018-12-18T23:26:30.743Z,0.4
2018-12-18T23:31:27.890Z,0.9
2018-12-18T23:36:24.426Z,0.4
2018-12-18T23:41:20.322Z,0.4
2018-12-18T23:46:17.520Z,0.3
2018-12-18T23:51:14.155Z,0.9
2018-12-18T23:56:11.176Z,0.4
